Chicago Bridge — H9NR — position and weather

sailwx.info

Track history (hours):
 
Tides and Currents Weather Stations Pressure Air Temp Water Temp Dewpoint Dewpoint Depression Visibility Wind Speed Wind Dir Waves Ship Positions

Chicago Bridge

Last reported at 2016-Apr-22 17:33 UTC. Time now 2016-May-06 01:40 UTC.
Position N 01°56' E 102°17'.
Warning: this ship's position is 13 days out of date.

Length 279 m; draft 13.1 m.

Type: Ship (hazmat cat B). MMSI: 352018000.

Date/timePositionNaut miles runAvg speedWind from/ knotsBaromVisibWave heightAir tempDewpointWater temp
2016-Apr-22 17:33N 01°56' E 102°17'1313.3
2016-Apr-22 16:33N 01°50' E 102°29'1312.4
2016-Apr-22 15:33N 01°45' E 102°40'6513.0
2016-Apr-22 10:33N 01°12' E 103°36'10 9.7
2016-Apr-22 09:33N 01°16' E 103°45'1 1.2
2016-Apr-22 08:24N 01°17' E 103°46'0 0.0
2016-Apr-22 07:33N 01°17' E 103°46'0 0.0
2016-Apr-22 05:27N 01°17' E 103°46'0 0.0
2016-Apr-22 04:33N 01°17' E 103°46'0 0.0
2016-Apr-22 03:33N 01°17' E 103°46'0 0.0
2016-Apr-22 02:30N 01°17' E 103°46'0 0.0
2016-Apr-22 01:33N 01°17' E 103°46'0 0.0
2016-Apr-22 00:30N 01°17' E 103°46'0 0.0
2016-Apr-21 23:27N 01°17' E 103°46'0 0.0
2016-Apr-21 22:33N 01°17' E 103°46'0 0.0
2016-Apr-21 21:18N 01°17' E 103°46'0 0.0
2016-Apr-21 20:27N 01°17' E 103°46'0 0.0
2016-Apr-21 19:27N 01°17' E 103°46'0 0.0
2016-Apr-21 18:33N 01°17' E 103°46'0 0.0
2016-Apr-21 17:26N 01°17' E 103°46'0 0.0
2016-Apr-21 16:17N 01°17' E 103°46'0 0.0
2016-Apr-21 15:29N 01°17' E 103°46'0 0.3
2016-Apr-21 14:33N 01°17' E 103°46'2 2.0
2016-Apr-21 13:33N 01°15' E 103°46'8 7.6
2016-Apr-21 12:33N 01°13' E 103°54'4 4.4
2016-Apr-21 11:33N 01°15' E 103°58'8 8.3
2016-Apr-21 10:33N 01°16' E 104°06'  
Track history (hours):
 
Tides and Currents Weather Stations Pressure Air Temp Water Temp Dewpoint Dewpoint Depression Visibility Wind Speed Wind Dir Waves Ship Positions

Chicago Bridge

Last reported at 2016-Apr-22 17:33 UTC. Time now 2016-May-06 01:40 UTC.
Position N 01°56' E 102°17'.
Warning: this ship's position is 13 days out of date.

Length 279 m; draft 13.1 m.

Type: Ship (hazmat cat B). MMSI: 352018000.

Date/timePositionNaut miles runAvg speedWind from/ knotsBaromVisibWave heightAir tempDewpointWater temp
2016-Apr-22 17:33N 01°56' E 102°17'1313.3
2016-Apr-22 16:33N 01°50' E 102°29'1312.4
2016-Apr-22 15:33N 01°45' E 102°40'6513.0
2016-Apr-22 10:33N 01°12' E 103°36'10 9.7
2016-Apr-22 09:33N 01°16' E 103°45'1 1.2
2016-Apr-22 08:24N 01°17' E 103°46'0 0.0
2016-Apr-22 07:33N 01°17' E 103°46'0 0.0
2016-Apr-22 05:27N 01°17' E 103°46'0 0.0
2016-Apr-22 04:33N 01°17' E 103°46'0 0.0
2016-Apr-22 03:33N 01°17' E 103°46'0 0.0
2016-Apr-22 02:30N 01°17' E 103°46'0 0.0
2016-Apr-22 01:33N 01°17' E 103°46'0 0.0
2016-Apr-22 00:30N 01°17' E 103°46'0 0.0
2016-Apr-21 23:27N 01°17' E 103°46'0 0.0
2016-Apr-21 22:33N 01°17' E 103°46'0 0.0
2016-Apr-21 21:18N 01°17' E 103°46'0 0.0
2016-Apr-21 20:27N 01°17' E 103°46'0 0.0
2016-Apr-21 19:27N 01°17' E 103°46'0 0.0
2016-Apr-21 18:33N 01°17' E 103°46'0 0.0
2016-Apr-21 17:26N 01°17' E 103°46'0 0.0
2016-Apr-21 16:17N 01°17' E 103°46'0 0.0
2016-Apr-21 15:29N 01°17' E 103°46'0 0.3
2016-Apr-21 14:33N 01°17' E 103°46'2 2.0
2016-Apr-21 13:33N 01°15' E 103°46'8 7.6
2016-Apr-21 12:33N 01°13' E 103°54'4 4.4
2016-Apr-21 11:33N 01°15' E 103°58'8 8.3
2016-Apr-21 10:33N 01°16' E 104°06'  

Dump ship's entire track history